createdAt,value
2022-11-27T00:02:01.840Z,15.60
2022-11-27T00:07:03.517Z,12.65
2022-11-27T00:12:05.464Z,18.52
2022-11-27T00:17:07.143Z,18.35
2022-11-27T00:22:08.812Z,10.48
2022-11-27T00:27:11.471Z,14.55
2022-11-27T00:32:13.291Z,15.93
2022-11-27T00:37:15.164Z,13.65
2022-11-27T00:42:16.817Z,16.90
2022-11-27T00:47:18.508Z,14.32
2022-11-27T00:52:20.343Z,19.33
2022-11-27T00:57:22.018Z,15.18
2022-11-27T01:02:23.751Z,14.68
2022-11-27T01:07:26.671Z,20.50
2022-11-27T01:12:28.367Z,17.63
2022-11-27T01:17:30.054Z,23.38
2022-11-27T01:22:32.888Z,17.08
2022-11-27T01:27:34.543Z,16.73
2022-11-27T01:32:36.202Z,17.77
2022-11-27T01:37:37.883Z,15.77
2022-11-27T01:42:39.617Z,24.58
2022-11-27T01:48:00.038Z,18.70
2022-11-27T01:53:09.671Z,24.20
2022-11-27T01:58:15.309Z,22.10
2022-11-27T02:03:17.071Z,19.42
2022-11-27T02:08:19.118Z,17.52
2022-11-27T02:13:25.408Z,21.00
2022-11-27T02:18:43.817Z,25.38
2022-11-27T02:24:09.845Z,21.02
2022-11-27T02:29:13.690Z,24.27
2022-11-27T02:34:25.609Z,19.65
2022-11-27T02:39:35.040Z,25.40
2022-11-27T02:44:43.601Z,19.98
2022-11-27T02:49:46.578Z,21.65
2022-11-27T02:54:51.967Z,20.95
2022-11-27T02:59:56.087Z,22.85
2022-11-27T03:05:02.374Z,17.60
2022-11-27T03:10:12.676Z,23.02
2022-11-27T03:15:14.625Z,25.67
2022-11-27T03:20:22.327Z,20.67
2022-11-27T03:25:24.855Z,20.30
2022-11-27T03:30:27.009Z,19.70
2022-11-27T03:35:29.594Z,16.77
2022-11-27T03:40:50.399Z,21.52
2022-11-27T03:46:05.526Z,24.40
2022-11-27T03:51:16.307Z,16.73
2022-11-27T03:56:38.547Z,21.67
2022-11-27T04:01:40.826Z,19.88
2022-11-27T04:06:42.559Z,23.27
2022-11-27T04:11:44.256Z,16.73
2022-11-27T04:16:45.932Z,13.52
2022-11-27T04:21:47.607Z,15.80
2022-11-27T04:26:49.350Z,15.83
2022-11-27T04:31:51.032Z,15.37
2022-11-27T04:36:52.728Z,23.50
2022-11-27T04:41:54.436Z,21.90
2022-11-27T04:46:56.187Z,22.30
2022-11-27T04:51:57.969Z,19.35
2022-11-27T04:56:59.637Z,18.08
2022-11-27T05:02:01.359Z,20.65
2022-11-27T05:07:03.504Z,24.13
2022-11-27T05:12:05.377Z,20.88
2022-11-27T05:17:07.182Z,18.27
2022-11-27T05:22:08.851Z,24.97
2022-11-27T05:27:10.572Z,21.00
2022-11-27T05:32:12.240Z,20.43
2022-11-27T05:37:19.204Z,20.63
2022-11-27T05:42:21.474Z,24.00
2022-11-27T05:47:23.248Z,30.50
2022-11-27T05:52:24.917Z,27.77
2022-11-27T05:57:26.667Z,24.83
2022-11-27T06:02:29.682Z,24.67
2022-11-27T06:07:32.069Z,21.50
2022-11-27T06:12:33.785Z,34.20
2022-11-27T06:17:35.446Z,24.63
2022-11-27T06:22:37.115Z,22.60
2022-11-27T06:27:38.997Z,29.67
2022-11-27T06:32:40.676Z,23.87
2022-11-27T06:37:42.380Z,24.70
2022-11-27T06:42:44.043Z,21.90
2022-11-27T06:47:45.720Z,19.92
2022-11-27T06:52:47.380Z,17.20
2022-11-27T06:57:51.339Z,19.67
2022-11-27T07:02:54.875Z,14.77
2022-11-27T07:07:58.317Z,19.40
2022-11-27T07:13:00.020Z,20.47
2022-11-27T07:18:02.343Z,19.43
2022-11-27T07:23:04.004Z,15.80
2022-11-27T07:28:05.683Z,17.80
2022-11-27T07:33:07.348Z,20.70
2022-11-27T07:38:09.013Z,18.45
2022-11-27T07:43:10.684Z,17.93
2022-11-27T07:48:12.358Z,17.85
2022-11-27T07:53:14.084Z,17.83
2022-11-27T07:58:15.859Z,21.10
2022-11-27T08:03:18.650Z,15.80
2022-11-27T08:08:20.346Z,16.63
2022-11-27T08:13:22.041Z,18.50
2022-11-27T08:18:23.715Z,18.75
2022-11-27T08:23:25.376Z,23.77
2022-11-27T08:28:27.063Z,15.40
2022-11-27T08:33:29.360Z,15.68
2022-11-27T08:38:31.110Z,15.38
2022-11-27T08:43:33.362Z,14.90
2022-11-27T08:48:35.132Z,15.60
2022-11-27T08:53:37.857Z,14.53
2022-11-27T08:58:41.212Z,20.60
2022-11-27T09:03:43.067Z,15.30
2022-11-27T09:08:45.707Z,18.77
2022-11-27T09:13:48.083Z,9.90
2022-11-27T09:18:51.751Z,8.88
2022-11-27T09:23:55.536Z,10.03
2022-11-27T09:28:58.605Z,8.55
2022-11-27T09:34:00.271Z,17.23
2022-11-27T09:39:03.660Z,16.83
2022-11-27T09:44:39.740Z,14.30
2022-11-27T09:49:45.809Z,15.93
2022-11-27T09:55:02.764Z,15.52
2022-11-27T10:00:19.014Z,9.98
2022-11-27T10:05:43.617Z,12.32
2022-11-27T10:11:15.551Z,11.30
2022-11-27T10:17:00.535Z,9.27
2022-11-27T10:22:20.966Z,12.07
2022-11-27T10:27:30.219Z,9.07
2022-11-27T10:38:06.560Z,11.77
2022-11-27T10:43:11.903Z,11.13
2022-11-27T10:48:14.564Z,11.75
2022-11-27T10:53:30.954Z,9.88
2022-11-27T10:58:52.899Z,5.95
2022-11-27T11:04:31.274Z,7.72
2022-11-27T11:09:32.983Z,6.80
2022-11-27T11:14:34.676Z,9.73
2022-11-27T11:19:39.164Z,7.15
2022-11-27T11:24:46.847Z,9.52
2022-11-27T11:29:51.355Z,9.70
2022-11-27T11:35:08.525Z,9.05
2022-11-27T11:40:16.073Z,8.52
2022-11-27T11:45:21.155Z,8.93
2022-11-27T11:50:28.883Z,9.10
2022-11-27T11:55:59.596Z,8.40
2022-11-27T12:01:26.488Z,10.27
2022-11-27T12:06:37.842Z,7.72
2022-11-27T12:11:45.292Z,11.77
2022-11-27T12:17:04.531Z,11.23
2022-11-27T12:22:45.016Z,10.98
2022-11-27T12:27:57.635Z,10.50
2022-11-27T12:33:05.475Z,8.10
2022-11-27T12:38:35.139Z,6.80
2022-11-27T12:43:47.894Z,10.40
2022-11-27T12:49:14.166Z,11.85
2022-11-27T12:54:28.544Z,7.95
2022-11-27T12:59:43.564Z,10.15
2022-11-27T13:05:24.090Z,9.88
2022-11-27T13:10:38.277Z,10.40
2022-11-27T13:15:52.331Z,6.95
2022-11-27T13:20:55.328Z,6.07
2022-11-27T13:25:58.647Z,11.77
2022-11-27T13:31:01.453Z,9.57
2022-11-27T13:36:04.621Z,8.32
2022-11-27T13:41:07.088Z,6.85
2022-11-27T13:46:20.143Z,7.93
2022-11-27T13:51:28.653Z,10.18
2022-11-27T13:56:31.385Z,13.73
2022-11-27T14:01:33.190Z,5.57
2022-11-27T14:06:35.327Z,9.15
2022-11-27T14:11:44.320Z,6.10
2022-11-27T14:16:57.642Z,9.15
2022-11-27T14:21:59.548Z,6.85
2022-11-27T14:27:06.995Z,11.35
2022-11-27T14:32:12.565Z,9.80
2022-11-27T14:37:26.296Z,7.68
2022-11-27T14:42:30.211Z,5.38
2022-11-27T14:47:34.915Z,13.32
2022-11-27T14:52:36.967Z,6.65
2022-11-27T14:57:38.814Z,9.00
2022-11-27T15:02:40.651Z,8.75
2022-11-27T15:07:47.902Z,9.93
2022-11-27T15:12:52.320Z,12.43
2022-11-27T15:18:00.199Z,15.95
2022-11-27T15:23:02.793Z,11.90
2022-11-27T15:28:23.725Z,8.43
2022-11-27T15:33:33.460Z,11.27
2022-11-27T15:38:35.184Z,11.68
2022-11-27T15:43:36.855Z,7.05
2022-11-27T15:48:38.564Z,12.45
2022-11-27T15:53:40.345Z,12.18
2022-11-27T15:58:42.450Z,8.85
2022-11-27T16:03:44.132Z,6.78
2022-11-27T16:08:45.817Z,10.35
2022-11-27T16:13:47.479Z,10.30
2022-11-27T16:18:49.159Z,11.95
2022-11-27T16:23:50.859Z,13.68
2022-11-27T16:28:52.558Z,11.60
2022-11-27T16:33:55.190Z,11.68
2022-11-27T16:38:59.416Z,14.32
2022-11-27T16:44:02.306Z,14.40
2022-11-27T16:49:06.534Z,17.20
2022-11-27T16:54:11.424Z,15.87
2022-11-27T16:59:15.649Z,16.20
2022-11-27T17:04:19.939Z,18.90
2022-11-27T17:09:24.720Z,21.02
2022-11-27T17:14:27.505Z,14.45
2022-11-27T17:19:31.697Z,14.50
2022-11-27T17:24:35.846Z,16.27
2022-11-27T17:29:39.395Z,17.23
2022-11-27T17:34:41.429Z,18.17
2022-11-27T17:39:44.383Z,16.95
2022-11-27T17:44:47.458Z,17.50
2022-11-27T17:49:49.216Z,28.63
2022-11-27T17:54:50.975Z,22.48
2022-11-27T17:59:53.007Z,22.90
2022-11-27T18:04:54.753Z,27.92
2022-11-27T18:09:57.197Z,31.08
2022-11-27T18:15:01.436Z,29.20
2022-11-27T18:20:04.798Z,25.20
2022-11-27T18:25:06.663Z,27.25
2022-11-27T18:30:09.163Z,30.73
2022-11-27T18:35:11.017Z,27.80
2022-11-27T18:40:13.010Z,30.25
2022-11-27T18:45:31.708Z,27.10
2022-11-27T18:50:35.624Z,25.20
2022-11-27T18:55:37.618Z,26.73
2022-11-27T19:00:39.482Z,29.65
2022-11-27T19:05:41.160Z,29.38
2022-11-27T19:10:42.861Z,32.03
2022-11-27T19:15:46.664Z,29.38
2022-11-27T19:20:48.400Z,28.83
2022-11-27T19:25:51.105Z,34.07
2022-11-27T19:30:52.916Z,45.53
2022-11-27T19:36:00.146Z,35.35
2022-11-27T19:41:04.346Z,36.08
2022-11-27T19:46:19.909Z,39.20
2022-11-27T19:51:21.789Z,37.93
2022-11-27T19:56:27.069Z,37.13
2022-11-27T20:01:29.323Z,33.17
2022-11-27T20:06:31.279Z,31.73
2022-11-27T20:11:35.201Z,32.45
2022-11-27T20:16:38.833Z,40.70
2022-11-27T20:21:40.670Z,39.87
2022-11-27T20:26:43.363Z,36.60
2022-11-27T20:31:45.593Z,44.85
2022-11-27T20:36:48.075Z,36.70
2022-11-27T20:41:51.422Z,34.38
2022-11-27T20:46:53.134Z,37.20
2022-11-27T20:51:55.425Z,38.83
2022-11-27T20:56:57.682Z,35.20
2022-11-27T21:02:01.576Z,41.13
2022-11-27T21:07:03.783Z,40.70
2022-11-27T21:12:06.449Z,39.22
2022-11-27T21:17:08.474Z,37.22
2022-11-27T21:22:10.323Z,39.23
2022-11-27T21:27:12.235Z,40.80
2022-11-27T21:32:14.375Z,41.75
2022-11-27T21:37:16.340Z,42.63
2022-11-27T21:42:18.708Z,43.47
2022-11-27T21:47:20.473Z,47.25
2022-11-27T21:52:22.161Z,42.03
2022-11-27T21:57:24.036Z,38.03
2022-11-27T22:02:25.865Z,40.67
2022-11-27T22:07:27.626Z,37.97
2022-11-27T22:12:30.497Z,41.10
2022-11-27T22:17:33.123Z,39.07
2022-11-27T22:22:34.902Z,37.97
2022-11-27T22:27:37.298Z,35.87
2022-11-27T22:32:38.994Z,38.08
2022-11-27T22:37:40.760Z,42.43
2022-11-27T22:42:42.426Z,40.07
2022-11-27T22:47:44.120Z,36.38
2022-11-27T22:52:45.850Z,40.13
2022-11-27T22:57:47.847Z,32.13
2022-11-27T23:02:49.623Z,37.87
2022-11-27T23:07:51.443Z,37.92
2022-11-27T23:12:53.302Z,39.20
2022-11-27T23:17:54.978Z,44.57
2022-11-27T23:22:56.673Z,48.23
2022-11-27T23:27:58.346Z,50.77
2022-11-27T23:33:00.123Z,40.77
2022-11-27T23:38:01.845Z,46.33
2022-11-27T23:43:03.517Z,38.85
2022-11-27T23:48:05.286Z,42.03
2022-11-27T23:53:07.021Z,46.05
2022-11-27T23:58:08.690Z,43.15
